Seaempress — 9HFA7 — position and weather

sailwx.info

Track history (hours):
 
Tides and Currents Weather Stations Pressure Air Temp Water Temp Dewpoint Dewpoint Depression Visibility Wind Speed Wind Dir Waves Ship Positions

Seaempress

Last reported at 2017-Oct-17 18:22 UTC. Time now 2017-Oct-17 18:58 UTC.
Position N 44°21' E 037°42'.

Length 182 m; draft 7.5 m.

Type: Tanker. MMSI: 215171000.

Date/timePositionNaut miles runAvg speedWind from/ knotsBaromVisibWave heightAir tempDewpointWater temp
2017-Oct-17 18:22N 44°21' E 037°42'0 0.2
2017-Oct-17 17:37N 44°21' E 037°42'0 0.2
2017-Oct-17 17:21N 44°21' E 037°42'0 0.2
2017-Oct-17 16:53N 44°21' E 037°42'0 0.2
2017-Oct-17 15:51N 44°21' E 037°41'0 0.2
2017-Oct-17 15:26N 44°21' E 037°41'0 0.7
2017-Oct-17 14:58N 44°21' E 037°41'0 1.0
2017-Oct-17 14:31N 44°22' E 037°40'1 1.2
2017-Oct-17 13:58N 44°22' E 037°40'1 1.2
2017-Oct-17 13:31N 44°23' E 037°39'1 1.3
2017-Oct-17 12:59N 44°23' E 037°39'1 1.3
2017-Oct-17 12:30N 44°24' E 037°38'1 1.3
2017-Oct-17 12:00N 44°24' E 037°38'1 1.2
2017-Oct-17 11:30N 44°25' E 037°37'1 1.4
2017-Oct-17 11:00N 44°25' E 037°37'2 3.3
2017-Oct-17 10:30N 44°26' E 037°35'3 6.6
2017-Oct-17 09:59N 44°24' E 037°30'4 8.2
2017-Oct-17 09:30N 44°23' E 037°26'4 8.1
2017-Oct-17 08:58N 44°21' E 037°20'42012.5
2017-Oct-15 23:25N 40°59' E 028°60'4 7.8
2017-Oct-15 22:52N 40°55' E 028°58'3 8.4
2017-Oct-15 22:30N 40°53' E 028°55'4 8.4
2017-Oct-15 22:00N 40°51' E 028°50'5 1.3
2017-Oct-15 18:13N 40°49' E 028°44'2 0.6
2017-Oct-15 15:08N 40°48' E 028°46'0 0.6
2017-Oct-15 14:56N 40°48' E 028°46'1 0.7
2017-Oct-15 13:51N 40°47' E 028°47'2 1.4
2017-Oct-15 12:07N 40°48' E 028°50'2 2.9
2017-Oct-15 11:31N 40°50' E 028°51'0 0.5
2017-Oct-15 11:22N 40°50' E 028°52'277 6.3
2017-Oct-13 15:22N 37°40' E 024°30'  
2017-Oct-08 18:07N 37°21' E 023°41'212.8
2017-Oct-08 17:59N 37°22' E 023°42'612.9
2017-Oct-08 17:30N 37°28' E 023°42'713.2
2017-Oct-08 17:00N 37°35' E 023°42'612.9
2017-Oct-08 16:30N 37°41' E 023°41'713.2
2017-Oct-08 16:00N 37°47' E 023°38'612.5
2017-Oct-08 15:30N 37°54' E 023°36'3 6.7
2017-Oct-08 15:00N 37°57' E 023°36'4 7.3
2017-Oct-08 14:30N 37°60' E 023°33'3 4.7
2017-Oct-08 13:59N 38°02' E 023°36'0 0.0
2017-Oct-08 13:26N 38°02' E 023°36'0 0.0
2017-Oct-08 12:59N 38°02' E 023°36'0 0.0
2017-Oct-08 12:29N 38°02' E 023°36'0 0.0
2017-Oct-08 11:59N 38°02' E 023°36'0 0.0
2017-Oct-08 11:29N 38°02' E 023°36'0 0.0
2017-Oct-08 10:56N 38°02' E 023°36'0 0.0
2017-Oct-08 10:29N 38°02' E 023°36'0 0.0
2017-Oct-08 09:59N 38°02' E 023°36'0 0.0
2017-Oct-08 09:28N 38°02' E 023°36'0 0.0
2017-Oct-08 08:56N 38°02' E 023°36'0 0.0
2017-Oct-08 08:26N 38°02' E 023°36'0 0.0
2017-Oct-08 07:58N 38°02' E 023°36'0 0.0
2017-Oct-08 07:26N 38°02' E 023°36'0 0.0
2017-Oct-08 06:58N 38°02' E 023°36'0 0.0
2017-Oct-08 06:28N 38°02' E 023°36'0 0.0
2017-Oct-08 05:58N 38°02' E 023°36'0 0.0
2017-Oct-08 05:28N 38°02' E 023°36'0 0.0
2017-Oct-08 04:58N 38°02' E 023°36'0 0.0
2017-Oct-08 04:28N 38°02' E 023°36'0 0.0
2017-Oct-08 03:58N 38°02' E 023°36'0 0.0
2017-Oct-08 03:28N 38°02' E 023°36'0 0.0
2017-Oct-08 02:58N 38°02' E 023°36'0 0.0
2017-Oct-08 02:25N 38°02' E 023°36'0 0.0
2017-Oct-08 01:58N 38°02' E 023°36'0 0.0
2017-Oct-08 01:28N 38°02' E 023°36'0 0.0
2017-Oct-08 00:58N 38°02' E 023°36'0 0.0
2017-Oct-08 00:28N 38°02' E 023°36'0 0.0
2017-Oct-07 23:55N 38°02' E 023°36'0 0.0
2017-Oct-07 23:28N 38°02' E 023°36'0 0.0
2017-Oct-07 22:58N 38°02' E 023°36'0 0.0
2017-Oct-07 22:28N 38°02' E 023°36'0 0.0
2017-Oct-07 21:55N 38°02' E 023°36'0 0.0
2017-Oct-07 21:28N 38°02' E 023°36'0 0.0
2017-Oct-07 20:58N 38°02' E 023°36'0 0.0
2017-Oct-07 20:28N 38°02' E 023°36'0 0.0
2017-Oct-07 19:58N 38°02' E 023°36'0 0.0
2017-Oct-07 19:28N 38°02' E 023°36'0 0.0
2017-Oct-07 18:58N 38°02' E 023°36'0 0.0
2017-Oct-07 18:28N 38°02' E 023°36'  
Track history (hours):
 
Tides and Currents Weather Stations Pressure Air Temp Water Temp Dewpoint Dewpoint Depression Visibility Wind Speed Wind Dir Waves Ship Positions

Seaempress

Last reported at 2017-Oct-17 18:22 UTC. Time now 2017-Oct-17 18:58 UTC.
Position N 44°21' E 037°42'.

Length 182 m; draft 7.5 m.

Type: Tanker. MMSI: 215171000.

Date/timePositionNaut miles runAvg speedWind from/ knotsBaromVisibWave heightAir tempDewpointWater temp
2017-Oct-17 18:22N 44°21' E 037°42'0 0.2
2017-Oct-17 17:37N 44°21' E 037°42'0 0.2
2017-Oct-17 17:21N 44°21' E 037°42'0 0.2
2017-Oct-17 16:53N 44°21' E 037°42'0 0.2
2017-Oct-17 15:51N 44°21' E 037°41'0 0.2
2017-Oct-17 15:26N 44°21' E 037°41'0 0.7
2017-Oct-17 14:58N 44°21' E 037°41'0 1.0
2017-Oct-17 14:31N 44°22' E 037°40'1 1.2
2017-Oct-17 13:58N 44°22' E 037°40'1 1.2
2017-Oct-17 13:31N 44°23' E 037°39'1 1.3
2017-Oct-17 12:59N 44°23' E 037°39'1 1.3
2017-Oct-17 12:30N 44°24' E 037°38'1 1.3
2017-Oct-17 12:00N 44°24' E 037°38'1 1.2
2017-Oct-17 11:30N 44°25' E 037°37'1 1.4
2017-Oct-17 11:00N 44°25' E 037°37'2 3.3
2017-Oct-17 10:30N 44°26' E 037°35'3 6.6
2017-Oct-17 09:59N 44°24' E 037°30'4 8.2
2017-Oct-17 09:30N 44°23' E 037°26'4 8.1
2017-Oct-17 08:58N 44°21' E 037°20'42012.5
2017-Oct-15 23:25N 40°59' E 028°60'4 7.8
2017-Oct-15 22:52N 40°55' E 028°58'3 8.4
2017-Oct-15 22:30N 40°53' E 028°55'4 8.4
2017-Oct-15 22:00N 40°51' E 028°50'5 1.3
2017-Oct-15 18:13N 40°49' E 028°44'2 0.6
2017-Oct-15 15:08N 40°48' E 028°46'0 0.6
2017-Oct-15 14:56N 40°48' E 028°46'1 0.7
2017-Oct-15 13:51N 40°47' E 028°47'2 1.4
2017-Oct-15 12:07N 40°48' E 028°50'2 2.9
2017-Oct-15 11:31N 40°50' E 028°51'0 0.5
2017-Oct-15 11:22N 40°50' E 028°52'277 6.3
2017-Oct-13 15:22N 37°40' E 024°30'  
2017-Oct-08 18:07N 37°21' E 023°41'212.8
2017-Oct-08 17:59N 37°22' E 023°42'612.9
2017-Oct-08 17:30N 37°28' E 023°42'713.2
2017-Oct-08 17:00N 37°35' E 023°42'612.9
2017-Oct-08 16:30N 37°41' E 023°41'713.2
2017-Oct-08 16:00N 37°47' E 023°38'612.5
2017-Oct-08 15:30N 37°54' E 023°36'3 6.7
2017-Oct-08 15:00N 37°57' E 023°36'4 7.3
2017-Oct-08 14:30N 37°60' E 023°33'3 4.7
2017-Oct-08 13:59N 38°02' E 023°36'0 0.0
2017-Oct-08 13:26N 38°02' E 023°36'0 0.0
2017-Oct-08 12:59N 38°02' E 023°36'0 0.0
2017-Oct-08 12:29N 38°02' E 023°36'0 0.0
2017-Oct-08 11:59N 38°02' E 023°36'0 0.0
2017-Oct-08 11:29N 38°02' E 023°36'0 0.0
2017-Oct-08 10:56N 38°02' E 023°36'0 0.0
2017-Oct-08 10:29N 38°02' E 023°36'0 0.0
2017-Oct-08 09:59N 38°02' E 023°36'0 0.0
2017-Oct-08 09:28N 38°02' E 023°36'0 0.0
2017-Oct-08 08:56N 38°02' E 023°36'0 0.0
2017-Oct-08 08:26N 38°02' E 023°36'0 0.0
2017-Oct-08 07:58N 38°02' E 023°36'0 0.0
2017-Oct-08 07:26N 38°02' E 023°36'0 0.0
2017-Oct-08 06:58N 38°02' E 023°36'0 0.0
2017-Oct-08 06:28N 38°02' E 023°36'0 0.0
2017-Oct-08 05:58N 38°02' E 023°36'0 0.0
2017-Oct-08 05:28N 38°02' E 023°36'0 0.0
2017-Oct-08 04:58N 38°02' E 023°36'0 0.0
2017-Oct-08 04:28N 38°02' E 023°36'0 0.0
2017-Oct-08 03:58N 38°02' E 023°36'0 0.0
2017-Oct-08 03:28N 38°02' E 023°36'0 0.0
2017-Oct-08 02:58N 38°02' E 023°36'0 0.0
2017-Oct-08 02:25N 38°02' E 023°36'0 0.0
2017-Oct-08 01:58N 38°02' E 023°36'0 0.0
2017-Oct-08 01:28N 38°02' E 023°36'0 0.0
2017-Oct-08 00:58N 38°02' E 023°36'0 0.0
2017-Oct-08 00:28N 38°02' E 023°36'0 0.0
2017-Oct-07 23:55N 38°02' E 023°36'0 0.0
2017-Oct-07 23:28N 38°02' E 023°36'0 0.0
2017-Oct-07 22:58N 38°02' E 023°36'0 0.0
2017-Oct-07 22:28N 38°02' E 023°36'0 0.0
2017-Oct-07 21:55N 38°02' E 023°36'0 0.0
2017-Oct-07 21:28N 38°02' E 023°36'0 0.0
2017-Oct-07 20:58N 38°02' E 023°36'0 0.0
2017-Oct-07 20:28N 38°02' E 023°36'0 0.0
2017-Oct-07 19:58N 38°02' E 023°36'0 0.0
2017-Oct-07 19:28N 38°02' E 023°36'0 0.0
2017-Oct-07 18:58N 38°02' E 023°36'0 0.0
2017-Oct-07 18:28N 38°02' E 023°36'  

Dump ship's entire track history